createdAt,value
2023-05-08T00:01:01.738Z,6.50
2023-05-08T00:03:30.282Z,6.57
2023-05-08T00:05:57.232Z,6.40
2023-05-08T00:08:24.009Z,6.83
2023-05-08T00:10:50.974Z,7.90
2023-05-08T00:13:17.812Z,6.47
2023-05-08T00:15:44.641Z,6.53
2023-05-08T00:18:11.782Z,7.40
2023-05-08T00:20:38.591Z,10.40
2023-05-08T00:23:05.674Z,7.83
2023-05-08T00:25:32.620Z,7.27
2023-05-08T00:28:00.292Z,7.83
2023-05-08T00:30:27.405Z,7.60
2023-05-08T00:32:54.406Z,7.50
2023-05-08T00:35:22.015Z,7.63
2023-05-08T00:37:48.841Z,7.13
2023-05-08T00:40:16.166Z,7.63
2023-05-08T00:42:42.970Z,7.93
2023-05-08T00:45:10.088Z,8.47
2023-05-08T00:47:37.222Z,8.07
2023-05-08T00:50:05.422Z,7.30
2023-05-08T00:52:33.775Z,8.50
2023-05-08T00:55:02.646Z,8.47
2023-05-08T00:57:32.471Z,8.43
2023-05-08T01:00:01.863Z,8.57
2023-05-08T01:02:31.522Z,8.83
2023-05-08T01:04:58.554Z,8.60
2023-05-08T01:07:25.780Z,8.47
2023-05-08T01:09:52.572Z,7.90
2023-05-08T01:12:47.113Z,7.60
2023-05-08T01:15:13.836Z,8.53
2023-05-08T01:17:51.929Z,6.80
2023-05-08T01:20:53.874Z,7.80
2023-05-08T01:23:39.188Z,6.83
2023-05-08T01:26:23.987Z,7.33
2023-05-08T01:29:25.970Z,7.43
2023-05-08T01:32:13.734Z,6.97
2023-05-08T01:34:50.465Z,7.47
2023-05-08T01:37:26.190Z,7.33
2023-05-08T01:40:21.277Z,6.90
2023-05-08T01:43:31.433Z,7.13
2023-05-08T01:46:02.921Z,7.73
2023-05-08T01:48:50.636Z,7.80
2023-05-08T01:51:24.319Z,8.60
2023-05-08T01:54:00.814Z,7.93
2023-05-08T01:56:30.055Z,7.63
2023-05-08T01:58:59.977Z,7.50
2023-05-08T02:01:29.394Z,7.47
2023-05-08T02:03:57.934Z,7.37
2023-05-08T02:06:27.077Z,7.10
2023-05-08T02:08:54.842Z,8.43
2023-05-08T02:11:24.354Z,8.27
2023-05-08T02:13:51.606Z,9.40
2023-05-08T02:16:19.291Z,7.63
2023-05-08T02:18:51.338Z,8.37
2023-05-08T02:21:19.664Z,6.90
2023-05-08T02:23:47.994Z,8.07
2023-05-08T02:26:16.413Z,7.70
2023-05-08T02:28:43.883Z,8.03
2023-05-08T02:31:12.146Z,8.17
2023-05-08T02:33:41.860Z,8.33
2023-05-08T02:36:10.810Z,7.60
2023-05-08T02:38:39.798Z,9.30
2023-05-08T02:41:07.943Z,7.40
2023-05-08T02:43:35.583Z,8.27
2023-05-08T02:46:23.902Z,9.10
2023-05-08T02:48:53.708Z,9.37
2023-05-08T02:51:21.184Z,8.83
2023-05-08T02:54:20.097Z,9.50
2023-05-08T02:56:57.051Z,9.27
2023-05-08T02:59:31.353Z,9.40
2023-05-08T03:02:14.281Z,9.50
2023-05-08T03:04:49.771Z,8.17
2023-05-08T03:07:17.143Z,9.80
2023-05-08T03:09:50.574Z,9.93
2023-05-08T03:12:24.768Z,9.17
2023-05-08T03:15:06.566Z,8.80
2023-05-08T03:17:35.458Z,8.80
2023-05-08T03:20:08.132Z,9.47
2023-05-08T03:22:37.375Z,9.47
2023-05-08T03:25:06.427Z,10.03
2023-05-08T03:27:34.458Z,9.10
2023-05-08T03:30:02.599Z,8.30
2023-05-08T03:32:31.683Z,8.87
2023-05-08T03:35:00.186Z,8.47
2023-05-08T03:37:28.498Z,8.93
2023-05-08T03:39:56.457Z,9.27
2023-05-08T03:42:27.394Z,9.77
2023-05-08T03:44:54.630Z,8.40
2023-05-08T03:47:22.468Z,8.87
2023-05-08T03:49:50.350Z,9.47
2023-05-08T03:52:17.270Z,9.83
2023-05-08T03:54:44.371Z,9.10
2023-05-08T03:57:11.257Z,9.90
2023-05-08T04:00:09.931Z,10.27
2023-05-08T04:02:57.746Z,9.90
2023-05-08T04:05:47.125Z,9.70
2023-05-08T04:08:23.133Z,9.20
2023-05-08T04:10:59.117Z,9.27
2023-05-08T04:13:32.626Z,9.80
2023-05-08T04:16:19.191Z,10.13
2023-05-08T04:18:48.105Z,9.83
2023-05-08T04:21:20.244Z,9.50
2023-05-08T04:23:51.056Z,9.37
2023-05-08T04:26:18.968Z,10.33
2023-05-08T04:28:49.497Z,8.60
2023-05-08T04:31:17.072Z,8.80
2023-05-08T04:33:47.423Z,9.73
2023-05-08T04:36:14.670Z,9.53
2023-05-08T04:38:41.632Z,9.37
2023-05-08T04:41:08.715Z,9.07
2023-05-08T04:43:36.575Z,9.83
2023-05-08T04:46:06.182Z,9.20
2023-05-08T04:48:33.701Z,10.37
2023-05-08T04:51:01.107Z,9.60
2023-05-08T04:53:27.843Z,9.77
2023-05-08T04:55:54.654Z,9.70
2023-05-08T04:58:21.462Z,9.97
2023-05-08T05:00:49.037Z,9.70
2023-05-08T05:03:15.994Z,9.57
2023-05-08T05:05:42.831Z,9.23
2023-05-08T05:08:09.596Z,9.43
2023-05-08T05:10:38.086Z,9.40
2023-05-08T05:13:04.881Z,9.47
2023-05-08T05:15:31.636Z,8.97
2023-05-08T05:17:58.552Z,8.90
2023-05-08T05:20:25.377Z,9.63
2023-05-08T05:22:52.162Z,9.70
2023-05-08T05:25:19.054Z,8.50
2023-05-08T05:27:45.820Z,9.37
2023-05-08T05:30:13.095Z,9.60
2023-05-08T05:32:40.104Z,9.27
2023-05-08T05:35:07.458Z,9.70
2023-05-08T05:37:34.266Z,9.40
2023-05-08T05:40:01.108Z,9.10
2023-05-08T05:42:27.890Z,9.40
2023-05-08T05:44:56.672Z,9.77
2023-05-08T05:47:23.647Z,11.10
2023-05-08T05:49:50.527Z,10.03
2023-05-08T05:52:17.426Z,10.50
2023-05-08T05:54:44.281Z,10.63
2023-05-08T05:57:11.049Z,9.63
2023-05-08T05:59:38.459Z,10.20
2023-05-08T06:02:05.388Z,10.03
2023-05-08T06:04:32.370Z,10.23
2023-05-08T06:06:59.314Z,9.13
2023-05-08T06:09:26.191Z,11.57
2023-05-08T06:11:52.946Z,10.43
2023-05-08T06:14:20.369Z,10.37
2023-05-08T06:16:47.264Z,10.20
2023-05-08T06:19:14.021Z,9.30
2023-05-08T06:21:41.002Z,10.37
2023-05-08T06:24:08.087Z,9.93
2023-05-08T06:26:34.941Z,10.10
2023-05-08T06:29:01.906Z,11.23
2023-05-08T06:31:28.802Z,11.03
2023-05-08T06:33:55.819Z,9.30
2023-05-08T06:36:22.643Z,11.27
2023-05-08T06:38:49.439Z,9.90
2023-05-08T06:41:16.742Z,10.97
2023-05-08T06:43:43.496Z,11.20
2023-05-08T06:46:10.252Z,9.60
2023-05-08T06:48:37.008Z,9.57
2023-05-08T06:51:04.550Z,9.33
2023-05-08T06:53:31.570Z,9.60
2023-05-08T06:55:58.864Z,9.90
2023-05-08T06:58:25.717Z,10.60
2023-05-08T07:00:52.578Z,9.87
2023-05-08T07:03:19.302Z,10.00
2023-05-08T07:05:45.961Z,10.60
2023-05-08T07:08:12.711Z,10.20
2023-05-08T07:10:39.590Z,11.10
2023-05-08T07:13:06.685Z,9.50
2023-05-08T07:15:33.617Z,8.97
2023-05-08T07:18:00.899Z,10.50
2023-05-08T07:20:28.083Z,10.70
2023-05-08T07:22:54.889Z,10.10
2023-05-08T07:25:21.649Z,9.77
2023-05-08T07:27:48.463Z,10.17
2023-05-08T07:30:15.484Z,10.30
2023-05-08T07:32:42.351Z,10.53
2023-05-08T07:35:11.492Z,10.60
2023-05-08T07:37:39.580Z,11.10
2023-05-08T07:40:07.114Z,10.20
2023-05-08T07:42:44.136Z,9.80
2023-05-08T07:45:13.153Z,9.70
2023-05-08T07:47:52.838Z,9.30
2023-05-08T07:50:20.383Z,9.50
2023-05-08T07:52:49.744Z,9.10
2023-05-08T07:55:17.269Z,9.80
2023-05-08T07:57:44.478Z,9.17
2023-05-08T08:00:13.953Z,8.13
2023-05-08T08:02:41.803Z,7.80
2023-05-08T08:05:09.160Z,8.70
2023-05-08T08:07:36.119Z,8.67
2023-05-08T08:10:04.522Z,9.20
2023-05-08T08:12:31.987Z,8.13
2023-05-08T08:14:58.800Z,8.83
2023-05-08T08:17:28.332Z,8.03
2023-05-08T08:19:55.642Z,7.20
2023-05-08T08:22:22.514Z,8.13
2023-05-08T08:24:49.330Z,7.93
2023-05-08T08:27:16.294Z,7.60
2023-05-08T08:29:43.180Z,7.07
2023-05-08T08:32:10.036Z,9.67
2023-05-08T08:34:36.776Z,9.83
2023-05-08T08:37:06.701Z,9.87
2023-05-08T08:39:36.857Z,9.00
2023-05-08T08:42:04.153Z,9.60
2023-05-08T08:44:31.013Z,9.03
2023-05-08T08:47:00.513Z,9.20
2023-05-08T08:49:36.046Z,9.00
2023-05-08T08:52:11.488Z,8.70
2023-05-08T08:54:41.365Z,10.07
2023-05-08T08:57:09.687Z,9.40
2023-05-08T08:59:39.271Z,10.67
2023-05-08T09:02:17.719Z,10.50
2023-05-08T09:04:44.833Z,9.77
2023-05-08T09:07:12.334Z,11.03
2023-05-08T09:09:44.577Z,10.73
2023-05-08T09:12:13.680Z,10.50
2023-05-08T09:14:40.615Z,10.27
2023-05-08T09:17:07.768Z,10.50
2023-05-08T09:19:35.418Z,11.40
2023-05-08T09:22:04.253Z,10.77
2023-05-08T09:25:09.978Z,11.60
2023-05-08T09:27:36.852Z,12.23
2023-05-08T09:30:08.474Z,13.13
2023-05-08T09:32:37.915Z,8.77
2023-05-08T09:35:06.356Z,10.33
2023-05-08T09:37:33.858Z,11.37
2023-05-08T09:40:21.154Z,10.40
2023-05-08T09:42:49.585Z,11.70
2023-05-08T09:45:31.355Z,10.40
2023-05-08T09:47:58.424Z,11.07
2023-05-08T09:50:25.742Z,12.73
2023-05-08T09:52:52.907Z,12.37
2023-05-08T09:55:20.053Z,11.97
2023-05-08T09:57:58.031Z,10.40
2023-05-08T10:00:29.401Z,11.30
2023-05-08T10:02:56.184Z,8.93
2023-05-08T10:05:24.707Z,10.27
2023-05-08T10:07:51.605Z,11.03
2023-05-08T10:10:28.786Z,11.50
2023-05-08T10:12:56.915Z,11.27
2023-05-08T10:15:25.681Z,10.77
2023-05-08T10:18:06.033Z,12.43
2023-05-08T10:20:40.661Z,13.63
2023-05-08T10:23:11.509Z,12.97
2023-05-08T10:25:55.699Z,10.43
2023-05-08T10:28:51.101Z,11.43
2023-05-08T10:31:18.694Z,12.27
2023-05-08T10:33:47.563Z,9.87
2023-05-08T10:36:14.937Z,9.97
2023-05-08T10:38:43.269Z,11.90
2023-05-08T10:41:11.308Z,10.70
2023-05-08T10:43:42.691Z,10.80
2023-05-08T10:46:22.020Z,11.90
2023-05-08T10:48:58.139Z,12.07
2023-05-08T10:51:57.723Z,14.07
2023-05-08T10:54:42.661Z,12.57
2023-05-08T10:57:12.851Z,12.90
2023-05-08T10:59:46.310Z,12.77
2023-05-08T11:02:14.985Z,16.63
2023-05-08T11:04:42.190Z,13.77
2023-05-08T11:07:09.119Z,15.40
2023-05-08T11:09:54.171Z,12.63
2023-05-08T11:12:25.577Z,13.43
2023-05-08T11:15:06.917Z,13.40
2023-05-08T11:17:34.213Z,13.37
2023-05-08T11:20:07.092Z,14.80
2023-05-08T11:22:34.975Z,13.40
2023-05-08T11:25:10.306Z,13.03
2023-05-08T11:27:49.314Z,13.90
2023-05-08T11:30:24.977Z,13.57
2023-05-08T11:33:04.052Z,11.80
2023-05-08T11:35:44.910Z,13.73
2023-05-08T11:38:16.344Z,10.40
2023-05-08T11:40:47.487Z,9.90
2023-05-08T11:43:32.864Z,11.33
2023-05-08T11:46:04.764Z,9.10
2023-05-08T11:48:35.821Z,11.97
2023-05-08T11:51:04.093Z,10.43
2023-05-08T11:53:32.162Z,9.40
2023-05-08T11:56:01.873Z,11.13
2023-05-08T11:58:28.834Z,11.60
2023-05-08T12:00:56.002Z,9.70
2023-05-08T12:03:25.553Z,10.53
2023-05-08T12:05:56.708Z,10.53
2023-05-08T12:08:23.833Z,10.13
2023-05-08T12:10:52.264Z,11.83
2023-05-08T12:13:29.479Z,9.63
2023-05-08T12:16:00.628Z,11.00
2023-05-08T12:18:29.405Z,10.93
2023-05-08T12:21:01.089Z,11.30
2023-05-08T12:23:31.297Z,9.80
2023-05-08T12:26:01.597Z,10.00
2023-05-08T12:28:28.966Z,10.47
2023-05-08T12:30:56.228Z,11.27
2023-05-08T12:33:23.959Z,10.80
2023-05-08T12:35:50.933Z,11.77
2023-05-08T12:38:17.784Z,9.70
2023-05-08T12:40:46.773Z,10.07
2023-05-08T12:43:13.516Z,8.70
2023-05-08T12:45:41.915Z,7.90
2023-05-08T12:48:11.388Z,7.70
2023-05-08T12:50:43.404Z,10.07
2023-05-08T12:53:16.494Z,8.77
2023-05-08T12:55:54.301Z,9.60
2023-05-08T12:58:25.844Z,11.27
2023-05-08T13:00:54.101Z,9.63
2023-05-08T13:03:26.485Z,8.83
2023-05-08T13:05:56.040Z,10.20
2023-05-08T13:08:39.086Z,9.40
2023-05-08T13:11:06.828Z,10.20
2023-05-08T13:13:35.368Z,9.37
2023-05-08T13:16:07.563Z,10.57
2023-05-08T13:18:36.902Z,9.03
2023-05-08T13:21:03.946Z,10.07
2023-05-08T13:23:30.664Z,9.80
2023-05-08T13:25:57.518Z,8.80
2023-05-08T13:28:24.401Z,10.30
2023-05-08T13:30:51.199Z,8.83
2023-05-08T13:33:18.017Z,10.93
2023-05-08T13:35:44.840Z,10.47
2023-05-08T13:38:11.605Z,10.90
2023-05-08T13:40:38.382Z,11.97
2023-05-08T13:43:05.175Z,11.53
2023-05-08T13:45:33.038Z,11.20
2023-05-08T13:48:00.230Z,10.67
2023-05-08T13:50:27.156Z,12.53
2023-05-08T13:52:55.127Z,11.30
2023-05-08T13:55:23.330Z,11.90
2023-05-08T13:57:50.609Z,10.67
2023-05-08T14:00:18.172Z,8.57
2023-05-08T14:02:45.348Z,10.27
2023-05-08T14:05:12.545Z,10.57
2023-05-08T14:07:39.765Z,11.70
2023-05-08T14:10:06.903Z,11.40
2023-05-08T14:12:36.759Z,10.80
2023-05-08T14:15:07.087Z,13.20
2023-05-08T14:17:33.918Z,11.13
2023-05-08T14:20:00.798Z,10.37
2023-05-08T14:22:27.725Z,10.20
2023-05-08T14:24:54.596Z,9.60
2023-05-08T14:27:21.519Z,8.73
2023-05-08T14:29:48.517Z,10.30
2023-05-08T14:32:15.325Z,9.97
2023-05-08T14:34:42.192Z,10.00
2023-05-08T14:37:08.925Z,9.80
2023-05-08T14:39:35.744Z,11.10
2023-05-08T14:42:20.766Z,12.77
2023-05-08T14:44:49.470Z,16.17
2023-05-08T14:47:16.287Z,14.80
2023-05-08T14:49:43.146Z,15.30
2023-05-08T14:52:09.953Z,15.20
2023-05-08T14:54:36.915Z,16.93
2023-05-08T14:57:03.803Z,17.20
2023-05-08T14:59:30.561Z,17.50
2023-05-08T15:01:57.334Z,16.63
2023-05-08T15:04:24.198Z,19.03
2023-05-08T15:06:51.012Z,17.17
2023-05-08T15:09:18.032Z,18.77
2023-05-08T15:11:44.922Z,15.60
2023-05-08T15:14:11.722Z,18.27
2023-05-08T15:16:38.667Z,18.17
2023-05-08T15:19:05.641Z,16.40
2023-05-08T15:21:32.448Z,17.73
2023-05-08T15:23:59.204Z,19.80
2023-05-08T15:26:26.039Z,16.90
2023-05-08T15:28:52.846Z,18.90
2023-05-08T15:31:19.636Z,20.17
2023-05-08T15:33:47.968Z,18.87
2023-05-08T15:36:15.303Z,17.53
2023-05-08T15:38:42.556Z,18.90
2023-05-08T15:41:15.328Z,16.80
2023-05-08T15:43:43.238Z,17.57
2023-05-08T15:46:10.273Z,14.67
2023-05-08T15:48:37.101Z,17.33
2023-05-08T15:51:03.975Z,12.87
2023-05-08T15:53:30.744Z,16.30
2023-05-08T15:55:57.637Z,13.87
2023-05-08T15:58:24.783Z,15.73
2023-05-08T16:00:51.896Z,14.40
2023-05-08T16:03:19.299Z,15.20
2023-05-08T16:05:46.306Z,15.63
2023-05-08T16:08:13.750Z,14.37
2023-05-08T16:10:41.806Z,14.67
2023-05-08T16:13:08.937Z,15.00
2023-05-08T16:15:35.900Z,15.80
2023-05-08T16:18:03.161Z,15.23
2023-05-08T16:20:30.322Z,15.03
2023-05-08T16:22:57.857Z,15.13
2023-05-08T16:25:25.649Z,14.70
2023-05-08T16:27:52.597Z,12.60
2023-05-08T16:30:19.550Z,16.00
2023-05-08T16:32:46.562Z,17.37
2023-05-08T16:35:13.987Z,15.50
2023-05-08T16:37:40.968Z,13.97
2023-05-08T16:40:09.342Z,15.03
2023-05-08T16:42:37.006Z,15.10
2023-05-08T16:45:05.062Z,15.73
2023-05-08T16:47:32.541Z,15.50
2023-05-08T16:49:59.649Z,13.97
2023-05-08T16:52:26.507Z,12.90
2023-05-08T16:54:53.682Z,16.07
2023-05-08T16:57:20.505Z,15.40
2023-05-08T16:59:47.371Z,16.20
2023-05-08T17:02:18.762Z,15.40
2023-05-08T17:04:49.393Z,14.70
2023-05-08T17:07:16.773Z,15.50
2023-05-08T17:09:43.796Z,15.67
2023-05-08T17:12:10.735Z,15.67
2023-05-08T17:14:39.361Z,15.83
2023-05-08T17:17:06.556Z,15.90
2023-05-08T17:19:33.372Z,16.83
2023-05-08T17:22:00.222Z,15.60
2023-05-08T17:24:27.255Z,13.93
2023-05-08T17:26:54.128Z,16.83
2023-05-08T17:29:20.986Z,14.53
2023-05-08T17:31:47.812Z,17.80
2023-05-08T17:34:14.693Z,16.73
2023-05-08T17:36:41.647Z,17.77
2023-05-08T17:39:08.532Z,15.50
2023-05-08T17:41:35.285Z,11.90
2023-05-08T17:44:01.962Z,13.90
2023-05-08T17:46:28.803Z,12.20
2023-05-08T17:48:55.732Z,13.43
2023-05-08T17:51:22.508Z,12.50
2023-05-08T17:53:49.390Z,14.13
2023-05-08T17:56:20.372Z,14.10
2023-05-08T17:58:47.444Z,14.70
2023-05-08T18:01:14.271Z,13.97
2023-05-08T18:03:41.705Z,15.33
2023-05-08T18:06:08.658Z,14.73
2023-05-08T18:08:35.435Z,14.83
2023-05-08T18:11:02.181Z,14.67
2023-05-08T18:13:29.032Z,15.70
2023-05-08T18:15:55.867Z,15.67
2023-05-08T18:18:22.679Z,14.40
2023-05-08T18:20:49.474Z,15.70
2023-05-08T18:23:16.258Z,16.30
2023-05-08T18:25:43.052Z,16.47
2023-05-08T18:28:09.796Z,15.90
2023-05-08T18:30:38.175Z,15.77
2023-05-08T18:33:04.984Z,14.33
2023-05-08T18:35:31.830Z,14.90
2023-05-08T18:37:58.716Z,15.73
2023-05-08T18:40:25.719Z,16.77
2023-05-08T18:42:52.540Z,13.70
2023-05-08T18:45:19.688Z,16.10
2023-05-08T18:47:46.613Z,15.03
2023-05-08T18:50:13.715Z,16.13
2023-05-08T18:52:40.921Z,15.30
2023-05-08T18:55:08.110Z,14.93
2023-05-08T18:57:35.279Z,15.30
2023-05-08T19:00:02.306Z,15.23
2023-05-08T19:02:29.540Z,14.23
2023-05-08T19:04:56.721Z,14.73
2023-05-08T19:07:23.768Z,13.80
2023-05-08T19:09:50.603Z,14.60
2023-05-08T19:12:17.445Z,14.73
2023-05-08T19:14:44.461Z,14.93
2023-05-08T19:17:11.646Z,13.33
2023-05-08T19:19:38.733Z,13.97
2023-05-08T19:22:06.496Z,14.37
2023-05-08T19:24:34.260Z,14.60
2023-05-08T19:27:01.315Z,15.90
2023-05-08T19:29:28.182Z,14.40
2023-05-08T19:31:56.599Z,15.47
2023-05-08T19:34:24.196Z,14.30
2023-05-08T19:36:51.368Z,13.43
2023-05-08T19:39:18.351Z,13.43
2023-05-08T19:41:45.337Z,14.57
2023-05-08T19:44:12.168Z,14.40
2023-05-08T19:46:39.707Z,14.50
2023-05-08T19:49:06.822Z,15.60
2023-05-08T19:51:33.725Z,16.33
2023-05-08T19:54:00.733Z,12.40
2023-05-08T19:56:27.627Z,15.60
2023-05-08T19:58:54.564Z,13.90
2023-05-08T20:01:21.584Z,13.53
2023-05-08T20:03:48.499Z,16.73
2023-05-08T20:06:15.445Z,15.73
2023-05-08T20:08:42.268Z,15.13
2023-05-08T20:11:12.342Z,15.33
2023-05-08T20:13:39.431Z,16.27
2023-05-08T20:16:06.591Z,17.37
2023-05-08T20:18:35.262Z,18.00
2023-05-08T20:21:02.024Z,17.73
2023-05-08T20:23:28.937Z,18.77
2023-05-08T20:25:55.754Z,18.63
2023-05-08T20:28:25.171Z,17.93
2023-05-08T20:30:52.595Z,16.97
2023-05-08T20:33:20.663Z,18.63
2023-05-08T20:35:49.223Z,17.57
2023-05-08T20:38:16.105Z,18.60
2023-05-08T20:40:43.011Z,18.17
2023-05-08T20:43:10.248Z,17.37
2023-05-08T20:45:37.724Z,18.30
2023-05-08T20:48:05.401Z,17.43
2023-05-08T20:50:32.283Z,18.90
2023-05-08T20:52:59.078Z,18.97
2023-05-08T20:55:25.887Z,18.60
2023-05-08T20:57:52.701Z,20.43
2023-05-08T21:00:19.760Z,17.87
2023-05-08T21:02:46.734Z,20.00
2023-05-08T21:05:13.878Z,16.90
2023-05-08T21:07:42.400Z,17.40
2023-05-08T21:10:09.637Z,16.17
2023-05-08T21:12:36.579Z,16.50
2023-05-08T21:15:03.580Z,17.57
2023-05-08T21:17:30.501Z,17.37
2023-05-08T21:19:57.373Z,18.53
2023-05-08T21:22:24.187Z,17.70
2023-05-08T21:24:50.943Z,19.23
2023-05-08T21:27:17.800Z,18.80
2023-05-08T21:29:44.528Z,19.27
2023-05-08T21:32:11.295Z,20.10
2023-05-08T21:34:38.135Z,18.50
2023-05-08T21:37:04.960Z,21.13
2023-05-08T21:39:31.720Z,18.20
2023-05-08T21:41:58.449Z,18.03
2023-05-08T21:44:25.270Z,20.20
2023-05-08T21:46:52.037Z,18.10
2023-05-08T21:49:18.734Z,19.10
2023-05-08T21:51:45.877Z,21.63
2023-05-08T21:54:12.839Z,18.73
2023-05-08T21:56:39.857Z,17.57
2023-05-08T21:59:07.416Z,17.90
2023-05-08T22:01:34.211Z,18.30
2023-05-08T22:04:01.254Z,18.10
2023-05-08T22:06:28.886Z,18.63
2023-05-08T22:08:55.588Z,18.53
2023-05-08T22:11:22.435Z,17.83
2023-05-08T22:13:49.209Z,19.77
2023-05-08T22:16:15.998Z,19.03
2023-05-08T22:18:42.754Z,18.20
2023-05-08T22:21:09.670Z,18.00
2023-05-08T22:23:36.477Z,20.00
2023-05-08T22:26:03.504Z,19.93
2023-05-08T22:28:30.311Z,18.47
2023-05-08T22:30:57.055Z,19.43
2023-05-08T22:33:23.841Z,19.63
2023-05-08T22:35:50.670Z,19.40
2023-05-08T22:38:17.478Z,19.03
2023-05-08T22:40:44.320Z,19.63
2023-05-08T22:43:11.052Z,19.60
2023-05-08T22:45:37.908Z,19.30
2023-05-08T22:48:05.031Z,19.63
2023-05-08T22:50:31.832Z,19.53
2023-05-08T22:52:58.638Z,19.47
2023-05-08T22:55:25.486Z,18.60
2023-05-08T22:57:52.314Z,17.50
2023-05-08T23:00:19.331Z,17.80
2023-05-08T23:02:46.225Z,18.93
2023-05-08T23:05:13.241Z,19.70
2023-05-08T23:07:40.712Z,19.00
2023-05-08T23:10:07.823Z,19.83
2023-05-08T23:12:34.737Z,19.57
2023-05-08T23:15:01.442Z,19.90
2023-05-08T23:17:28.225Z,22.17
2023-05-08T23:19:55.115Z,21.00
2023-05-08T23:22:21.898Z,20.00
2023-05-08T23:24:48.671Z,20.73
2023-05-08T23:27:15.459Z,22.10
2023-05-08T23:29:42.147Z,20.20
2023-05-08T23:32:08.993Z,19.90
2023-05-08T23:34:35.761Z,20.20
2023-05-08T23:37:02.448Z,20.80
2023-05-08T23:39:29.602Z,21.80
2023-05-08T23:41:56.425Z,21.10
2023-05-08T23:44:23.280Z,21.77
2023-05-08T23:46:50.079Z,21.87
2023-05-08T23:49:16.931Z,21.10
2023-05-08T23:51:43.653Z,22.67
2023-05-08T23:54:10.619Z,21.30
2023-05-08T23:56:37.535Z,21.63
2023-05-08T23:59:04.216Z,22.50
